sensor_id;sensor_type;location;lat;lon;timestamp;P1;durP1;ratioP1;P2;durP2;ratioP2
26562;SDS011;14217;50.986;5.826;2023-08-12T00:00:48;2.45;;;1.67;;
26562;SDS011;14217;50.986;5.826;2023-08-12T00:05:50;4.47;;;1.60;;
26562;SDS011;14217;50.986;5.826;2023-08-12T00:10:53;1.50;;;1.33;;
26562;SDS011;14217;50.986;5.826;2023-08-12T00:15:55;5.70;;;1.00;;
26562;SDS011;14217;50.986;5.826;2023-08-12T00:20:57;7.43;;;1.33;;
26562;SDS011;14217;50.986;5.826;2023-08-12T00:25:59;2.22;;;1.48;;
26562;SDS011;14217;50.986;5.826;2023-08-12T00:31:01;2.78;;;1.58;;
26562;SDS011;14217;50.986;5.826;2023-08-12T00:36:04;1.67;;;1.05;;
26562;SDS011;14217;50.986;5.826;2023-08-12T00:41:06;1.83;;;1.30;;
26562;SDS011;14217;50.986;5.826;2023-08-12T00:46:08;1.95;;;1.35;;
26562;SDS011;14217;50.986;5.826;2023-08-12T00:51:11;3.45;;;1.20;;
26562;SDS011;14217;50.986;5.826;2023-08-12T00:56:13;1.38;;;1.10;;
26562;SDS011;14217;50.986;5.826;2023-08-12T01:01:16;2.15;;;1.23;;
26562;SDS011;14217;50.986;5.826;2023-08-12T01:06:19;1.10;;;1.00;;
26562;SDS011;14217;50.986;5.826;2023-08-12T01:12:05;2.78;;;1.70;;
26562;SDS011;14217;50.986;5.826;2023-08-12T01:16:57;1.35;;;1.25;;
26562;SDS011;14217;50.986;5.826;2023-08-12T01:22:06;2.33;;;1.40;;
26562;SDS011;14217;50.986;5.826;2023-08-12T01:27:11;2.35;;;1.25;;
26562;SDS011;14217;50.986;5.826;2023-08-12T01:32:31;1.80;;;0.98;;
26562;SDS011;14217;50.986;5.826;2023-08-12T01:37:41;3.00;;;1.55;;
26562;SDS011;14217;50.986;5.826;2023-08-12T01:42:45;1.80;;;1.20;;
26562;SDS011;14217;50.986;5.826;2023-08-12T01:47:48;1.20;;;1.10;;
26562;SDS011;14217;50.986;5.826;2023-08-12T01:52:52;1.48;;;1.10;;
26562;SDS011;14217;50.986;5.826;2023-08-12T01:57:54;1.23;;;1.13;;
26562;SDS011;14217;50.986;5.826;2023-08-12T02:02:56;1.38;;;1.13;;
26562;SDS011;14217;50.986;5.826;2023-08-12T02:07:59;1.63;;;1.10;;
26562;SDS011;14217;50.986;5.826;2023-08-12T02:13:02;1.35;;;1.25;;
26562;SDS011;14217;50.986;5.826;2023-08-12T02:18:04;1.55;;;1.25;;
26562;SDS011;14217;50.986;5.826;2023-08-12T02:23:07;2.55;;;1.30;;
26562;SDS011;14217;50.986;5.826;2023-08-12T02:28:09;1.55;;;0.70;;
26562;SDS011;14217;50.986;5.826;2023-08-12T02:33:11;1.30;;;1.10;;
26562;SDS011;14217;50.986;5.826;2023-08-12T02:38:13;1.83;;;1.65;;
26562;SDS011;14217;50.986;5.826;2023-08-12T02:43:15;1.35;;;1.25;;
26562;SDS011;14217;50.986;5.826;2023-08-12T02:48:18;1.60;;;1.27;;
26562;SDS011;14217;50.986;5.826;2023-08-12T02:53:20;2.47;;;1.10;;
26562;SDS011;14217;50.986;5.826;2023-08-12T02:58:22;1.40;;;1.30;;
26562;SDS011;14217;50.986;5.826;2023-08-12T03:03:24;2.85;;;1.50;;
26562;SDS011;14217;50.986;5.826;2023-08-12T03:08:26;1.80;;;1.23;;
26562;SDS011;14217;50.986;5.826;2023-08-12T03:13:28;1.58;;;1.10;;
26562;SDS011;14217;50.986;5.826;2023-08-12T03:18:31;1.50;;;1.10;;
26562;SDS011;14217;50.986;5.826;2023-08-12T03:23:33;3.60;;;1.30;;
26562;SDS011;14217;50.986;5.826;2023-08-12T03:28:39;1.42;;;1.05;;
26562;SDS011;14217;50.986;5.826;2023-08-12T03:33:41;1.67;;;1.10;;
26562;SDS011;14217;50.986;5.826;2023-08-12T03:38:43;1.45;;;1.20;;
26562;SDS011;14217;50.986;5.826;2023-08-12T03:43:45;1.45;;;1.23;;
26562;SDS011;14217;50.986;5.826;2023-08-12T03:48:47;1.23;;;1.20;;
26562;SDS011;14217;50.986;5.826;2023-08-12T03:53:49;2.47;;;1.38;;
26562;SDS011;14217;50.986;5.826;2023-08-12T03:58:51;1.85;;;1.00;;
26562;SDS011;14217;50.986;5.826;2023-08-12T04:03:53;1.52;;;1.25;;
26562;SDS011;14217;50.986;5.826;2023-08-12T04:08:55;1.13;;;0.93;;
26562;SDS011;14217;50.986;5.826;2023-08-12T04:13:57;2.67;;;1.45;;
26562;SDS011;14217;50.986;5.826;2023-08-12T04:18:59;1.25;;;1.00;;
26562;SDS011;14217;50.986;5.826;2023-08-12T04:24:01;1.20;;;0.90;;
26562;SDS011;14217;50.986;5.826;2023-08-12T04:29:04;1.92;;;1.25;;
26562;SDS011;14217;50.986;5.826;2023-08-12T04:34:06;1.02;;;0.80;;
26562;SDS011;14217;50.986;5.826;2023-08-12T04:39:08;2.47;;;1.20;;
26562;SDS011;14217;50.986;5.826;2023-08-12T04:44:11;1.98;;;0.93;;
26562;SDS011;14217;50.986;5.826;2023-08-12T04:49:13;0.82;;;0.82;;
26562;SDS011;14217;50.986;5.826;2023-08-12T04:54:15;6.50;;;1.65;;
26562;SDS011;14217;50.986;5.826;2023-08-12T04:59:17;2.17;;;1.98;;
26562;SDS011;14217;50.986;5.826;2023-08-12T05:04:20;14.60;;;2.03;;
26562;SDS011;14217;50.986;5.826;2023-08-12T05:09:22;7.07;;;1.90;;
26562;SDS011;14217;50.986;5.826;2023-08-12T05:14:24;2.75;;;1.88;;
26562;SDS011;14217;50.986;5.826;2023-08-12T05:19:26;5.30;;;2.30;;
26562;SDS011;14217;50.986;5.826;2023-08-12T05:24:28;6.00;;;1.73;;
26562;SDS011;14217;50.986;5.826;2023-08-12T05:29:30;2.47;;;1.60;;
26562;SDS011;14217;50.986;5.826;2023-08-12T05:34:32;2.20;;;1.45;;
26562;SDS011;14217;50.986;5.826;2023-08-12T05:39:34;2.97;;;1.30;;
26562;SDS011;14217;50.986;5.826;2023-08-12T05:44:36;1.88;;;1.45;;
26562;SDS011;14217;50.986;5.826;2023-08-12T05:49:39;1.80;;;1.13;;
26562;SDS011;14217;50.986;5.826;2023-08-12T05:54:41;4.28;;;1.50;;
26562;SDS011;14217;50.986;5.826;2023-08-12T05:59:43;1.85;;;1.42;;
26562;SDS011;14217;50.986;5.826;2023-08-12T06:04:45;1.80;;;1.05;;
26562;SDS011;14217;50.986;5.826;2023-08-12T06:09:47;1.60;;;1.30;;
26562;SDS011;14217;50.986;5.826;2023-08-12T06:14:49;1.83;;;1.10;;
26562;SDS011;14217;50.986;5.826;2023-08-12T06:19:51;14.75;;;1.83;;
26562;SDS011;14217;50.986;5.826;2023-08-12T06:24:53;3.22;;;1.40;;
26562;SDS011;14217;50.986;5.826;2023-08-12T06:29:55;2.28;;;1.20;;
26562;SDS011;14217;50.986;5.826;2023-08-12T06:34:57;2.35;;;1.05;;
26562;SDS011;14217;50.986;5.826;2023-08-12T06:39:59;2.55;;;1.00;;
26562;SDS011;14217;50.986;5.826;2023-08-12T06:45:01;0.90;;;0.65;;
26562;SDS011;14217;50.986;5.826;2023-08-12T06:50:05;2.15;;;0.80;;
26562;SDS011;14217;50.986;5.826;2023-08-12T06:55:07;3.33;;;0.80;;
26562;SDS011;14217;50.986;5.826;2023-08-12T07:00:10;1.90;;;1.08;;
26562;SDS011;14217;50.986;5.826;2023-08-12T07:05:12;1.42;;;0.80;;
26562;SDS011;14217;50.986;5.826;2023-08-12T07:10:14;1.80;;;0.77;;
26562;SDS011;14217;50.986;5.826;2023-08-12T07:15:16;0.88;;;0.85;;
26562;SDS011;14217;50.986;5.826;2023-08-12T07:20:18;3.80;;;0.70;;
26562;SDS011;14217;50.986;5.826;2023-08-12T07:25:20;2.67;;;1.13;;
26562;SDS011;14217;50.986;5.826;2023-08-12T07:30:22;1.15;;;1.00;;
26562;SDS011;14217;50.986;5.826;2023-08-12T07:35:24;1.02;;;0.68;;
26562;SDS011;14217;50.986;5.826;2023-08-12T07:40:26;0.80;;;0.80;;
26562;SDS011;14217;50.986;5.826;2023-08-12T07:45:28;0.82;;;0.73;;
26562;SDS011;14217;50.986;5.826;2023-08-12T07:50:30;2.70;;;1.00;;
26562;SDS011;14217;50.986;5.826;2023-08-12T07:55:33;0.77;;;0.70;;
26562;SDS011;14217;50.986;5.826;2023-08-12T08:00:36;1.20;;;0.93;;
26562;SDS011;14217;50.986;5.826;2023-08-12T08:05:41;2.28;;;0.95;;
26562;SDS011;14217;50.986;5.826;2023-08-12T08:10:43;1.95;;;1.00;;
26562;SDS011;14217;50.986;5.826;2023-08-12T08:15:45;6.68;;;0.98;;
26562;SDS011;14217;50.986;5.826;2023-08-12T08:20:48;1.80;;;0.70;;
26562;SDS011;14217;50.986;5.826;2023-08-12T08:25:50;0.80;;;0.70;;
26562;SDS011;14217;50.986;5.826;2023-08-12T08:30:52;3.42;;;1.20;;
26562;SDS011;14217;50.986;5.826;2023-08-12T08:35:55;4.03;;;0.90;;
26562;SDS011;14217;50.986;5.826;2023-08-12T08:40:57;1.52;;;0.70;;
26562;SDS011;14217;50.986;5.826;2023-08-12T08:45:59;3.30;;;1.27;;
26562;SDS011;14217;50.986;5.826;2023-08-12T08:51:03;2.83;;;1.00;;
26562;SDS011;14217;50.986;5.826;2023-08-12T08:56:07;1.83;;;0.95;;
26562;SDS011;14217;50.986;5.826;2023-08-12T09:01:17;0.80;;;0.75;;
26562;SDS011;14217;50.986;5.826;2023-08-12T09:06:24;3.13;;;0.93;;
26562;SDS011;14217;50.986;5.826;2023-08-12T09:11:27;4.53;;;0.82;;
26562;SDS011;14217;50.986;5.826;2023-08-12T09:16:29;1.75;;;0.70;;
26562;SDS011;14217;50.986;5.826;2023-08-12T09:21:31;1.25;;;0.65;;
26562;SDS011;14217;50.986;5.826;2023-08-12T09:26:33;1.65;;;0.63;;
26562;SDS011;14217;50.986;5.826;2023-08-12T09:31:36;1.17;;;0.50;;
26562;SDS011;14217;50.986;5.826;2023-08-12T09:36:38;1.52;;;0.70;;
26562;SDS011;14217;50.986;5.826;2023-08-12T09:41:40;1.60;;;0.50;;
26562;SDS011;14217;50.986;5.826;2023-08-12T09:46:42;1.52;;;0.70;;
26562;SDS011;14217;50.986;5.826;2023-08-12T09:51:44;2.78;;;0.50;;
26562;SDS011;14217;50.986;5.826;2023-08-12T09:56:47;3.30;;;0.75;;
26562;SDS011;14217;50.986;5.826;2023-08-12T10:01:50;4.32;;;0.70;;
26562;SDS011;14217;50.986;5.826;2023-08-12T10:06:54;7.72;;;0.63;;
26562;SDS011;14217;50.986;5.826;2023-08-12T10:11:57;1.58;;;0.57;;
26562;SDS011;14217;50.986;5.826;2023-08-12T10:16:59;2.25;;;1.20;;
26562;SDS011;14217;50.986;5.826;2023-08-12T10:22:06;3.88;;;0.80;;
26562;SDS011;14217;50.986;5.826;2023-08-12T10:27:11;2.60;;;0.70;;
26562;SDS011;14217;50.986;5.826;2023-08-12T10:32:14;0.57;;;0.50;;
26562;SDS011;14217;50.986;5.826;2023-08-12T10:37:16;0.80;;;0.60;;
26562;SDS011;14217;50.986;5.826;2023-08-12T10:58:39;0.95;;;0.65;;
26562;SDS011;14217;50.986;5.826;2023-08-12T11:03:47;2.28;;;0.88;;
26562;SDS011;14217;50.986;5.826;2023-08-12T11:08:53;4.80;;;0.50;;
26562;SDS011;14217;50.986;5.826;2023-08-12T11:13:58;3.65;;;0.38;;
26562;SDS011;14217;50.986;5.826;2023-08-12T11:19:00;0.95;;;0.40;;
26562;SDS011;14217;50.986;5.826;2023-08-12T11:24:02;1.52;;;0.50;;
26562;SDS011;14217;50.986;5.826;2023-08-12T11:29:09;2.17;;;0.40;;
26562;SDS011;14217;50.986;5.826;2023-08-12T11:34:13;0.68;;;0.50;;
26562;SDS011;14217;50.986;5.826;2023-08-12T11:39:15;1.60;;;0.50;;
26562;SDS011;14217;50.986;5.826;2023-08-12T11:44:21;1.70;;;0.40;;
26562;SDS011;14217;50.986;5.826;2023-08-12T11:49:24;1.10;;;0.60;;
26562;SDS011;14217;50.986;5.826;2023-08-12T11:54:26;0.25;;;0.22;;
26562;SDS011;14217;50.986;5.826;2023-08-12T11:59:30;0.32;;;0.30;;
26562;SDS011;14217;50.986;5.826;2023-08-12T12:04:32;1.05;;;0.30;;
26562;SDS011;14217;50.986;5.826;2023-08-12T12:09:36;0.43;;;0.40;;
26562;SDS011;14217;50.986;5.826;2023-08-12T12:14:38;0.85;;;0.55;;
26562;SDS011;14217;50.986;5.826;2023-08-12T12:19:40;0.30;;;0.30;;
26562;SDS011;14217;50.986;5.826;2023-08-12T12:24:46;1.10;;;0.47;;
26562;SDS011;14217;50.986;5.826;2023-08-12T12:29:49;1.38;;;0.93;;
26562;SDS011;14217;50.986;5.826;2023-08-12T12:34:51;0.80;;;0.40;;
26562;SDS011;14217;50.986;5.826;2023-08-12T12:39:54;0.30;;;0.30;;
26562;SDS011;14217;50.986;5.826;2023-08-12T12:44:56;0.28;;;0.28;;
26562;SDS011;14217;50.986;5.826;2023-08-12T12:49:58;0.38;;;0.32;;
26562;SDS011;14217;50.986;5.826;2023-08-12T12:55:00;1.13;;;0.40;;
26562;SDS011;14217;50.986;5.826;2023-08-12T13:00:06;1.25;;;0.55;;
26562;SDS011;14217;50.986;5.826;2023-08-12T13:05:12;1.10;;;0.60;;
26562;SDS011;14217;50.986;5.826;2023-08-12T13:10:13;1.60;;;0.60;;
26562;SDS011;14217;50.986;5.826;2023-08-12T13:15:16;1.10;;;0.57;;
26562;SDS011;14217;50.986;5.826;2023-08-12T13:20:18;0.50;;;0.50;;
26562;SDS011;14217;50.986;5.826;2023-08-12T13:25:20;2.05;;;0.75;;
26562;SDS011;14217;50.986;5.826;2023-08-12T13:30:22;0.73;;;0.30;;
26562;SDS011;14217;50.986;5.826;2023-08-12T13:35:24;4.68;;;0.45;;
26562;SDS011;14217;50.986;5.826;2023-08-12T13:40:26;0.40;;;0.40;;
26562;SDS011;14217;50.986;5.826;2023-08-12T13:45:28;1.35;;;0.73;;
26562;SDS011;14217;50.986;5.826;2023-08-12T13:50:31;0.60;;;0.60;;
26562;SDS011;14217;50.986;5.826;2023-08-12T13:55:34;0.30;;;0.30;;
26562;SDS011;14217;50.986;5.826;2023-08-12T14:00:36;0.57;;;0.40;;
26562;SDS011;14217;50.986;5.826;2023-08-12T14:05:38;1.55;;;0.50;;
26562;SDS011;14217;50.986;5.826;2023-08-12T14:10:40;0.40;;;0.30;;
26562;SDS011;14217;50.986;5.826;2023-08-12T14:15:42;5.72;;;0.32;;
26562;SDS011;14217;50.986;5.826;2023-08-12T14:20:44;1.25;;;0.40;;
26562;SDS011;14217;50.986;5.826;2023-08-12T14:25:46;0.65;;;0.50;;
26562;SDS011;14217;50.986;5.826;2023-08-12T14:30:48;4.30;;;0.22;;
26562;SDS011;14217;50.986;5.826;2023-08-12T14:35:50;0.52;;;0.50;;
26562;SDS011;14217;50.986;5.826;2023-08-12T14:40:54;0.52;;;0.28;;
26562;SDS011;14217;50.986;5.826;2023-08-12T14:45:56;0.47;;;0.40;;
26562;SDS011;14217;50.986;5.826;2023-08-12T14:50:58;2.25;;;0.63;;
26562;SDS011;14217;50.986;5.826;2023-08-12T14:56:00;0.55;;;0.50;;
26562;SDS011;14217;50.986;5.826;2023-08-12T15:01:02;2.88;;;0.70;;
26562;SDS011;14217;50.986;5.826;2023-08-12T15:06:05;0.20;;;0.20;;
26562;SDS011;14217;50.986;5.826;2023-08-12T15:11:07;0.82;;;0.40;;
26562;SDS011;14217;50.986;5.826;2023-08-12T15:16:09;1.58;;;0.40;;
26562;SDS011;14217;50.986;5.826;2023-08-12T15:21:12;2.28;;;0.60;;
26562;SDS011;14217;50.986;5.826;2023-08-12T15:26:14;0.52;;;0.40;;
26562;SDS011;14217;50.986;5.826;2023-08-12T15:31:16;1.48;;;0.77;;
26562;SDS011;14217;50.986;5.826;2023-08-12T15:36:18;13.20;;;1.00;;
26562;SDS011;14217;50.986;5.826;2023-08-12T15:41:20;1.67;;;0.70;;
26562;SDS011;14217;50.986;5.826;2023-08-12T15:46:23;5.18;;;1.15;;
26562;SDS011;14217;50.986;5.826;2023-08-12T15:51:25;3.08;;;0.90;;
26562;SDS011;14217;50.986;5.826;2023-08-12T15:56:28;2.90;;;1.23;;
26562;SDS011;14217;50.986;5.826;2023-08-12T16:01:33;8.52;;;1.08;;
26562;SDS011;14217;50.986;5.826;2023-08-12T16:06:36;4.20;;;1.08;;
26562;SDS011;14217;50.986;5.826;2023-08-12T16:11:39;1.80;;;0.70;;
26562;SDS011;14217;50.986;5.826;2023-08-12T16:16:40;3.58;;;1.10;;
26562;SDS011;14217;50.986;5.826;2023-08-12T16:21:42;2.72;;;1.33;;
26562;SDS011;14217;50.986;5.826;2023-08-12T16:26:44;1.33;;;0.77;;
26562;SDS011;14217;50.986;5.826;2023-08-12T16:31:48;2.25;;;0.70;;
26562;SDS011;14217;50.986;5.826;2023-08-12T16:36:50;1.90;;;0.70;;
26562;SDS011;14217;50.986;5.826;2023-08-12T16:42:12;2.25;;;1.35;;
26562;SDS011;14217;50.986;5.826;2023-08-12T16:47:14;4.55;;;1.00;;
26562;SDS011;14217;50.986;5.826;2023-08-12T16:52:16;3.03;;;0.93;;
26562;SDS011;14217;50.986;5.826;2023-08-12T16:57:18;2.30;;;0.82;;
26562;SDS011;14217;50.986;5.826;2023-08-12T17:02:20;1.60;;;0.90;;
26562;SDS011;14217;50.986;5.826;2023-08-12T17:07:22;1.85;;;0.60;;
26562;SDS011;14217;50.986;5.826;2023-08-12T17:12:24;1.50;;;1.10;;
26562;SDS011;14217;50.986;5.826;2023-08-12T17:17:26;1.83;;;0.93;;
26562;SDS011;14217;50.986;5.826;2023-08-12T17:22:28;2.80;;;1.15;;
26562;SDS011;14217;50.986;5.826;2023-08-12T17:27:31;5.00;;;0.90;;
26562;SDS011;14217;50.986;5.826;2023-08-12T17:32:33;4.88;;;0.90;;
26562;SDS011;14217;50.986;5.826;2023-08-12T17:37:38;2.63;;;0.90;;
26562;SDS011;14217;50.986;5.826;2023-08-12T17:42:40;3.83;;;1.08;;
26562;SDS011;14217;50.986;5.826;2023-08-12T17:47:53;6.38;;;0.68;;
26562;SDS011;14217;50.986;5.826;2023-08-12T17:52:59;2.80;;;0.77;;
26562;SDS011;14217;50.986;5.826;2023-08-12T17:58:01;2.92;;;1.10;;
26562;SDS011;14217;50.986;5.826;2023-08-12T18:03:03;3.63;;;1.15;;
26562;SDS011;14217;50.986;5.826;2023-08-12T18:08:05;10.10;;;1.20;;
26562;SDS011;14217;50.986;5.826;2023-08-12T18:13:07;2.38;;;1.15;;
26562;SDS011;14217;50.986;5.826;2023-08-12T18:18:09;6.05;;;0.93;;
26562;SDS011;14217;50.986;5.826;2023-08-12T18:23:11;3.80;;;1.17;;
26562;SDS011;14217;50.986;5.826;2023-08-12T18:28:16;3.30;;;1.65;;
26562;SDS011;14217;50.986;5.826;2023-08-12T18:33:18;3.97;;;1.63;;
26562;SDS011;14217;50.986;5.826;2023-08-12T18:38:20;4.10;;;1.58;;
26562;SDS011;14217;50.986;5.826;2023-08-12T18:43:22;5.57;;;1.40;;
26562;SDS011;14217;50.986;5.826;2023-08-12T18:48:25;1.88;;;1.10;;
26562;SDS011;14217;50.986;5.826;2023-08-12T18:53:27;7.88;;;1.38;;
26562;SDS011;14217;50.986;5.826;2023-08-12T18:58:31;4.63;;;1.13;;
26562;SDS011;14217;50.986;5.826;2023-08-12T19:03:33;2.83;;;1.20;;
26562;SDS011;14217;50.986;5.826;2023-08-12T19:08:35;4.10;;;1.65;;
26562;SDS011;14217;50.986;5.826;2023-08-12T19:13:37;4.65;;;1.27;;
26562;SDS011;14217;50.986;5.826;2023-08-12T19:18:39;1.88;;;1.13;;
26562;SDS011;14217;50.986;5.826;2023-08-12T19:23:41;2.22;;;1.40;;
26562;SDS011;14217;50.986;5.826;2023-08-12T19:28:43;2.28;;;0.90;;
26562;SDS011;14217;50.986;5.826;2023-08-12T19:33:45;2.70;;;1.23;;
26562;SDS011;14217;50.986;5.826;2023-08-12T19:38:50;1.92;;;1.65;;
26562;SDS011;14217;50.986;5.826;2023-08-12T19:43:52;8.90;;;1.52;;
26562;SDS011;14217;50.986;5.826;2023-08-12T19:48:53;4.95;;;1.73;;
26562;SDS011;14217;50.986;5.826;2023-08-12T19:53:55;3.17;;;1.45;;
26562;SDS011;14217;50.986;5.826;2023-08-12T19:58:57;5.35;;;1.38;;
26562;SDS011;14217;50.986;5.826;2023-08-12T20:03:59;1.63;;;1.23;;
26562;SDS011;14217;50.986;5.826;2023-08-12T20:09:02;2.55;;;1.10;;
26562;SDS011;14217;50.986;5.826;2023-08-12T20:14:04;2.08;;;0.98;;
26562;SDS011;14217;50.986;5.826;2023-08-12T20:19:06;1.98;;;1.00;;
26562;SDS011;14217;50.986;5.826;2023-08-12T20:24:08;9.68;;;1.95;;
26562;SDS011;14217;50.986;5.826;2023-08-12T20:29:10;1.77;;;0.90;;
26562;SDS011;14217;50.986;5.826;2023-08-12T20:34:12;6.45;;;1.15;;
26562;SDS011;14217;50.986;5.826;2023-08-12T20:39:14;5.03;;;1.77;;
26562;SDS011;14217;50.986;5.826;2023-08-12T20:44:16;3.03;;;1.55;;
26562;SDS011;14217;50.986;5.826;2023-08-12T20:49:18;3.45;;;1.45;;
26562;SDS011;14217;50.986;5.826;2023-08-12T20:54:20;4.75;;;1.65;;
26562;SDS011;14217;50.986;5.826;2023-08-12T20:59:22;4.45;;;1.33;;
26562;SDS011;14217;50.986;5.826;2023-08-12T21:04:24;3.00;;;1.30;;
26562;SDS011;14217;50.986;5.826;2023-08-12T21:09:26;1.60;;;1.08;;
26562;SDS011;14217;50.986;5.826;2023-08-12T21:14:28;2.03;;;0.90;;
26562;SDS011;14217;50.986;5.826;2023-08-12T21:19:30;4.78;;;1.15;;
26562;SDS011;14217;50.986;5.826;2023-08-12T21:24:32;3.10;;;1.25;;
26562;SDS011;14217;50.986;5.826;2023-08-12T21:29:34;3.83;;;1.35;;
26562;SDS011;14217;50.986;5.826;2023-08-12T21:34:36;2.47;;;1.20;;
26562;SDS011;14217;50.986;5.826;2023-08-12T21:39:38;3.10;;;1.23;;
26562;SDS011;14217;50.986;5.826;2023-08-12T21:44:40;2.22;;;1.17;;
26562;SDS011;14217;50.986;5.826;2023-08-12T21:49:43;2.08;;;1.13;;
26562;SDS011;14217;50.986;5.826;2023-08-12T21:54:46;4.70;;;1.15;;
26562;SDS011;14217;50.986;5.826;2023-08-12T21:59:48;2.88;;;0.95;;
26562;SDS011;14217;50.986;5.826;2023-08-12T22:04:50;6.80;;;1.75;;
26562;SDS011;14217;50.986;5.826;2023-08-12T22:09:52;2.17;;;1.08;;
26562;SDS011;14217;50.986;5.826;2023-08-12T22:14:54;3.45;;;1.23;;
26562;SDS011;14217;50.986;5.826;2023-08-12T22:19:56;3.15;;;1.20;;
26562;SDS011;14217;50.986;5.826;2023-08-12T22:24:58;5.00;;;1.38;;
26562;SDS011;14217;50.986;5.826;2023-08-12T22:30:00;4.22;;;1.63;;
26562;SDS011;14217;50.986;5.826;2023-08-12T22:35:06;2.65;;;1.42;;
26562;SDS011;14217;50.986;5.826;2023-08-12T22:40:09;3.08;;;1.52;;
26562;SDS011;14217;50.986;5.826;2023-08-12T22:45:11;3.15;;;1.15;;
26562;SDS011;14217;50.986;5.826;2023-08-12T22:50:13;1.73;;;1.20;;
26562;SDS011;14217;50.986;5.826;2023-08-12T22:55:16;3.13;;;1.42;;
26562;SDS011;14217;50.986;5.826;2023-08-12T23:00:18;2.97;;;1.15;;
26562;SDS011;14217;50.986;5.826;2023-08-12T23:05:20;2.15;;;1.13;;
26562;SDS011;14217;50.986;5.826;2023-08-12T23:10:22;4.22;;;1.00;;
26562;SDS011;14217;50.986;5.826;2023-08-12T23:15:24;1.83;;;0.95;;
26562;SDS011;14217;50.986;5.826;2023-08-12T23:20:27;3.15;;;1.23;;
26562;SDS011;14217;50.986;5.826;2023-08-12T23:25:29;9.00;;;1.05;;
26562;SDS011;14217;50.986;5.826;2023-08-12T23:30:31;4.25;;;1.00;;
26562;SDS011;14217;50.986;5.826;2023-08-12T23:35:33;1.80;;;1.17;;
26562;SDS011;14217;50.986;5.826;2023-08-12T23:40:35;2.65;;;1.33;;
26562;SDS011;14217;50.986;5.826;2023-08-12T23:45:37;2.53;;;0.93;;
26562;SDS011;14217;50.986;5.826;2023-08-12T23:50:40;4.97;;;1.70;;
26562;SDS011;14217;50.986;5.826;2023-08-12T23:55:42;5.57;;;1.35;;
